Terminal Aerodrome Forecast
Issued by NWS Pendleton, OR

Home | Current Version | Previous Version | Text Only | Print | Product List | Glossary On
Versions: 1 2 3 4 5 6 7 8 9 10 11 12 13 14 15
000
FTUS46 KPDT 011700
TAFPDT
TAF
KPDT 011738Z 0118/0218 30006KT P6SM FEW200 SCT250
     FM012200 33007KT P6SM VCTS SCT110CB BKN200
     FM020100 31007KT P6SM FEW150 SCT250
     FM020600 14007KT P6SM BKN250=

USA.gov is the U.S. government's official web portal to all federal, state and local government web resources and services.